createdAt,value
2019-02-24T00:00:53.606Z,69.17
2019-02-24T00:01:53.599Z,69.38
2019-02-24T00:02:53.586Z,69.91
2019-02-24T00:03:54.750Z,69.80
2019-02-24T00:04:53.564Z,70.67
2019-02-24T00:05:53.551Z,69.94
2019-02-24T00:06:53.545Z,69.10
2019-02-24T00:07:53.534Z,70.36
2019-02-24T00:08:53.543Z,71.62
2019-02-24T00:09:53.516Z,71.48
2019-02-24T00:10:53.498Z,71.17
2019-02-24T00:11:53.495Z,71.06
2019-02-24T00:12:53.481Z,70.61
2019-02-24T00:13:53.465Z,70.82
2019-02-24T00:14:53.488Z,70.72
2019-02-24T00:15:53.448Z,71.77
2019-02-24T00:16:53.432Z,70.89
2019-02-24T00:17:53.426Z,70.16
2019-02-24T00:18:53.410Z,69.74
2019-02-24T00:19:53.405Z,69.35
2019-02-24T00:20:53.459Z,69.45
2019-02-24T00:21:53.387Z,69.87
2019-02-24T00:22:53.384Z,69.24
2019-02-24T00:23:53.356Z,69.03
2019-02-24T00:24:53.350Z,70.29
2019-02-24T00:25:53.349Z,69.98
2019-02-24T00:26:53.356Z,70.64
2019-02-24T00:27:53.318Z,70.19
2019-02-24T00:28:53.302Z,70.12
2019-02-24T00:29:53.295Z,70.12
2019-02-24T00:30:53.285Z,71.03
2019-02-24T00:31:53.274Z,70.40
2019-02-24T00:32:53.273Z,70.51
2019-02-24T00:33:53.253Z,71.03
2019-02-24T00:34:53.237Z,70.72
2019-02-24T00:35:53.240Z,70.93
2019-02-24T00:36:53.221Z,70.89
2019-02-24T00:37:53.204Z,71.03
2019-02-24T00:38:53.204Z,71.45
2019-02-24T00:39:53.187Z,71.35
2019-02-24T00:40:53.176Z,71.11
2019-02-24T00:41:53.175Z,70.68
2019-02-24T00:42:53.152Z,71.11
2019-02-24T00:43:53.152Z,72.58
2019-02-24T00:44:53.128Z,71.31
2019-02-24T00:45:53.120Z,70.58
2019-02-24T00:46:53.113Z,70.79
2019-02-24T00:47:53.101Z,69.74
2019-02-24T00:48:53.172Z,70.58
2019-02-24T00:49:53.075Z,70.48
2019-02-24T00:50:53.069Z,70.37
2019-02-24T00:51:53.056Z,70.79
2019-02-24T00:52:53.044Z,70.68
2019-02-24T00:53:53.086Z,71.45
2019-02-24T00:54:53.021Z,71.66
2019-02-24T00:55:53.017Z,71.03
2019-02-24T00:56:53.001Z,71.24
2019-02-24T00:57:52.994Z,71.03
2019-02-24T00:58:52.992Z,70.61
2019-02-24T00:59:52.975Z,70.93
2019-02-24T01:00:52.962Z,70.93
2019-02-24T01:01:52.951Z,71.42
2019-02-24T01:02:52.934Z,71.31
2019-02-24T01:03:52.942Z,70.37
2019-02-24T01:04:52.916Z,70.68
2019-02-24T01:05:52.902Z,71.00
2019-02-24T01:06:52.896Z,71.21
2019-02-24T01:07:52.887Z,70.37
2019-02-24T01:08:52.870Z,70.26
2019-02-24T01:09:52.879Z,70.58
2019-02-24T01:10:52.849Z,70.68
2019-02-24T01:11:52.848Z,71.31
2019-02-24T01:12:52.826Z,71.11
2019-02-24T01:13:53.999Z,70.26
2019-02-24T01:14:52.819Z,70.37
2019-02-24T01:15:52.810Z,70.58
2019-02-24T01:16:52.790Z,71.31
2019-02-24T01:17:52.793Z,70.16
2019-02-24T01:18:52.763Z,70.29
2019-02-24T01:19:52.751Z,70.09
2019-02-24T01:20:52.752Z,69.98
2019-02-24T01:21:52.730Z,70.72
2019-02-24T01:22:52.726Z,70.82
2019-02-24T01:23:52.717Z,70.93
2019-02-24T01:24:52.702Z,71.24
2019-02-24T01:25:52.695Z,72.08
2019-02-24T01:26:52.683Z,71.45
2019-02-24T01:27:52.671Z,71.31
2019-02-24T01:28:52.656Z,72.16
2019-02-24T01:29:52.642Z,72.16
2019-02-24T01:30:52.648Z,71.73
2019-02-24T01:31:52.644Z,70.58
2019-02-24T01:32:52.610Z,70.97
2019-02-24T01:33:52.604Z,70.97
2019-02-24T01:34:52.601Z,70.44
2019-02-24T01:35:52.584Z,70.23
2019-02-24T01:36:52.577Z,70.34
2019-02-24T01:37:52.560Z,70.55
2019-02-24T01:38:52.550Z,70.65
2019-02-24T01:39:52.535Z,70.55
2019-02-24T01:40:52.532Z,70.34
2019-02-24T01:41:52.529Z,70.34
2019-02-24T01:42:52.507Z,70.13
2019-02-24T01:43:52.518Z,69.49
2019-02-24T01:44:52.508Z,69.36
2019-02-24T01:45:52.477Z,69.18
2019-02-24T01:46:52.462Z,68.65
2019-02-24T01:47:52.456Z,68.76
2019-02-24T01:48:52.445Z,69.18
2019-02-24T01:49:52.464Z,69.64
2019-02-24T01:50:52.422Z,70.68
2019-02-24T01:51:52.416Z,70.68
2019-02-24T01:52:52.404Z,70.68
2019-02-24T01:53:52.392Z,70.79
2019-02-24T01:54:52.399Z,70.72
2019-02-24T01:55:52.366Z,71.24
2019-02-24T01:56:52.358Z,72.08
2019-02-24T01:57:52.345Z,72.12
2019-02-24T01:58:52.334Z,72.12
2019-02-24T01:59:52.320Z,71.70
2019-02-24T02:00:52.323Z,71.91
2019-02-24T02:01:52.297Z,72.22
2019-02-24T02:02:52.294Z,72.89
2019-02-24T02:03:52.287Z,71.83
2019-02-24T02:04:52.275Z,71.62
2019-02-24T02:05:52.302Z,72.15
2019-02-24T02:06:52.249Z,71.73
2019-02-24T02:07:52.233Z,73.21
2019-02-24T02:08:52.228Z,74.57
2019-02-24T02:09:52.219Z,73.80
2019-02-24T02:10:52.201Z,72.67
2019-02-24T02:11:52.245Z,73.21
2019-02-24T02:12:52.187Z,72.67
2019-02-24T02:13:52.182Z,71.83
2019-02-24T02:14:52.158Z,71.76
2019-02-24T02:15:52.150Z,72.57
2019-02-24T02:16:52.153Z,73.03
2019-02-24T02:17:52.132Z,73.45
2019-02-24T02:18:52.124Z,73.55
2019-02-24T02:19:52.125Z,74.92
2019-02-24T02:20:52.106Z,75.76
2019-02-24T02:21:52.095Z,75.10
2019-02-24T02:22:52.076Z,74.99
2019-02-24T02:23:52.071Z,74.92
2019-02-24T02:24:52.067Z,74.57
2019-02-24T02:25:52.043Z,74.57
2019-02-24T02:26:52.034Z,74.57
2019-02-24T02:27:52.028Z,74.92
2019-02-24T02:28:52.034Z,75.10
2019-02-24T02:29:52.006Z,74.68
2019-02-24T02:30:51.992Z,74.47
2019-02-24T02:31:51.981Z,74.68
2019-02-24T02:32:51.973Z,75.24
2019-02-24T02:33:52.007Z,75.24
2019-02-24T02:34:51.952Z,75.45
2019-02-24T02:35:51.935Z,74.50
2019-02-24T02:36:51.930Z,73.87
2019-02-24T02:37:51.923Z,73.83
2019-02-24T02:38:51.911Z,73.31
2019-02-24T02:39:51.947Z,73.31
2019-02-24T02:40:51.888Z,73.73
2019-02-24T02:41:51.874Z,73.63
2019-02-24T02:42:51.864Z,73.63
2019-02-24T02:43:51.871Z,74.26
2019-02-24T02:44:51.849Z,74.82
2019-02-24T02:45:51.844Z,74.47
2019-02-24T02:46:51.823Z,74.82
2019-02-24T02:47:51.813Z,75.98
2019-02-24T02:48:51.815Z,76.26
2019-02-24T02:49:51.803Z,75.13
2019-02-24T02:50:51.776Z,74.71
2019-02-24T02:51:51.771Z,74.92
2019-02-24T02:52:51.764Z,74.92
2019-02-24T02:53:51.744Z,74.92
2019-02-24T02:54:51.743Z,74.92
2019-02-24T02:55:51.736Z,74.82
2019-02-24T02:56:51.755Z,75.16
2019-02-24T02:57:51.708Z,75.59
2019-02-24T02:58:54.209Z,75.66
2019-02-24T02:59:51.686Z,75.76
2019-02-24T03:00:51.707Z,76.08
2019-02-24T03:01:51.661Z,75.24
2019-02-24T03:02:51.655Z,74.82
2019-02-24T03:03:51.650Z,74.71
2019-02-24T03:04:51.628Z,75.34
2019-02-24T03:05:51.624Z,76.29
2019-02-24T03:06:51.631Z,76.82
2019-02-24T03:07:51.596Z,76.92
2019-02-24T03:08:51.595Z,76.57
2019-02-24T03:09:51.577Z,76.29
2019-02-24T03:10:51.576Z,75.76
2019-02-24T03:11:51.599Z,75.45
2019-02-24T03:12:51.545Z,75.34
2019-02-24T03:13:51.541Z,74.71
2019-02-24T03:14:51.522Z,74.71
2019-02-24T03:15:51.517Z,75.24
2019-02-24T03:16:51.501Z,75.98
2019-02-24T03:17:51.511Z,75.90
2019-02-24T03:18:51.486Z,75.98
2019-02-24T03:19:51.475Z,76.43
2019-02-24T03:20:51.458Z,76.54
2019-02-24T03:21:51.460Z,76.86
2019-02-24T03:22:51.444Z,76.82
2019-02-24T03:23:51.431Z,76.75
2019-02-24T03:24:51.423Z,76.86
2019-02-24T03:25:51.411Z,76.75
2019-02-24T03:26:51.438Z,77.06
2019-02-24T03:27:51.385Z,77.28
2019-02-24T03:28:51.376Z,77.70
2019-02-24T03:29:51.379Z,77.59
2019-02-24T03:30:51.368Z,77.17
2019-02-24T03:31:51.344Z,77.17
2019-02-24T03:32:51.349Z,76.96
2019-02-24T03:33:51.339Z,77.59
2019-02-24T03:34:51.317Z,78.16
2019-02-24T03:35:51.313Z,78.05
2019-02-24T03:36:51.295Z,78.26
2019-02-24T03:37:51.282Z,78.33
2019-02-24T03:38:51.300Z,78.33
2019-02-24T03:39:51.260Z,77.91
2019-02-24T03:40:51.254Z,77.59
2019-02-24T03:41:51.241Z,77.91
2019-02-24T03:42:51.244Z,78.33
2019-02-24T03:43:51.222Z,78.33
2019-02-24T03:44:51.219Z,78.44
2019-02-24T03:45:51.201Z,78.33
2019-02-24T03:46:51.188Z,78.22
2019-02-24T03:47:51.175Z,78.44
2019-02-24T03:48:51.175Z,78.44
2019-02-24T03:49:51.169Z,78.33
2019-02-24T03:50:51.149Z,78.64
2019-02-24T03:51:51.135Z,79.07
2019-02-24T03:52:51.142Z,79.28
2019-02-24T03:53:51.121Z,79.03
2019-02-24T03:54:51.134Z,78.40
2019-02-24T03:55:51.091Z,78.22
2019-02-24T03:56:51.087Z,77.80
2019-02-24T03:57:51.081Z,77.87
2019-02-24T03:58:51.059Z,78.19
2019-02-24T03:59:51.056Z,78.12
2019-02-24T04:00:51.049Z,78.33
2019-02-24T04:01:51.032Z,78.72
2019-02-24T04:02:51.016Z,78.64
2019-02-24T04:03:51.012Z,78.64
2019-02-24T04:04:51.014Z,78.72
2019-02-24T04:05:51.006Z,78.72
2019-02-24T04:06:50.984Z,78.96
2019-02-24T04:07:50.971Z,78.72
2019-02-24T04:08:50.956Z,79.24
2019-02-24T04:09:50.948Z,78.96
2019-02-24T04:10:50.953Z,79.28
2019-02-24T04:11:50.930Z,78.72
2019-02-24T04:12:50.913Z,79.98
2019-02-24T04:13:50.903Z,79.60
2019-02-24T04:14:50.906Z,78.61
2019-02-24T04:15:50.900Z,79.35
2019-02-24T04:16:50.890Z,79.24
2019-02-24T04:17:50.874Z,79.14
2019-02-24T04:18:50.859Z,79.28
2019-02-24T04:19:50.844Z,79.91
2019-02-24T04:20:50.866Z,79.70
2019-02-24T04:21:50.821Z,79.80
2019-02-24T04:22:50.813Z,79.77
2019-02-24T04:23:50.802Z,79.07
2019-02-24T04:24:50.786Z,79.49
2019-02-24T04:25:50.778Z,78.08
2019-02-24T04:26:50.778Z,77.45
2019-02-24T04:27:50.760Z,77.77
2019-02-24T04:28:50.761Z,77.56
2019-02-24T04:29:50.759Z,77.03
2019-02-24T04:30:50.728Z,77.56
2019-02-24T04:31:50.744Z,77.24
2019-02-24T04:32:50.706Z,77.42
2019-02-24T04:33:50.697Z,77.31
2019-02-24T04:34:50.682Z,77.34
2019-02-24T04:35:50.674Z,77.03
2019-02-24T04:36:50.667Z,76.82
2019-02-24T04:37:50.664Z,77.03
2019-02-24T04:38:50.681Z,77.03
2019-02-24T04:39:50.643Z,76.61
2019-02-24T04:40:50.633Z,76.47
2019-02-24T04:41:50.618Z,76.08
2019-02-24T04:42:50.602Z,76.92
2019-02-24T04:43:50.610Z,76.92
2019-02-24T04:44:50.581Z,77.73
2019-02-24T04:45:50.567Z,77.42
2019-02-24T04:46:50.561Z,76.89
2019-02-24T04:47:50.555Z,76.15
2019-02-24T04:48:50.534Z,74.89
2019-02-24T04:49:50.539Z,74.37
2019-02-24T04:50:50.561Z,74.37
2019-02-24T04:51:50.515Z,74.37
2019-02-24T04:52:50.497Z,74.47
2019-02-24T04:53:50.507Z,74.22
2019-02-24T04:54:50.470Z,74.65
2019-02-24T04:55:50.463Z,74.43
2019-02-24T04:56:50.470Z,74.22
2019-02-24T04:57:50.442Z,73.59
2019-02-24T04:58:50.438Z,73.38
2019-02-24T04:59:50.417Z,72.89
2019-02-24T05:00:50.422Z,71.94
2019-02-24T05:01:50.396Z,72.12
2019-02-24T05:02:50.386Z,72.22
2019-02-24T05:03:50.386Z,72.25
2019-02-24T05:04:50.368Z,72.05
2019-02-24T05:05:50.846Z,72.99
2019-02-24T05:06:50.349Z,72.89
2019-02-24T05:07:50.335Z,73.10
2019-02-24T05:08:50.323Z,72.99
2019-02-24T05:09:50.317Z,72.89
2019-02-24T05:10:50.311Z,73.31
2019-02-24T05:11:50.306Z,73.21
2019-02-24T05:12:50.281Z,74.61
2019-02-24T05:13:50.300Z,74.29
2019-02-24T05:14:50.277Z,74.15
2019-02-24T05:15:50.258Z,74.47
2019-02-24T05:16:50.237Z,74.79
2019-02-24T05:17:50.234Z,74.89
2019-02-24T05:18:50.271Z,74.33
2019-02-24T05:19:50.210Z,73.07
2019-02-24T05:20:50.196Z,72.96
2019-02-24T05:21:50.192Z,73.17
2019-02-24T05:22:50.179Z,73.59
2019-02-24T05:23:50.163Z,73.28
2019-02-24T05:24:50.157Z,73.28
2019-02-24T05:25:50.147Z,73.17
2019-02-24T05:26:50.164Z,74.33
2019-02-24T05:27:50.125Z,74.65
2019-02-24T05:28:50.109Z,74.47
2019-02-24T05:29:50.102Z,73.70
2019-02-24T05:30:50.098Z,73.80
2019-02-24T05:31:50.085Z,74.37
2019-02-24T05:32:50.101Z,74.57
2019-02-24T05:33:50.071Z,74.79
2019-02-24T05:34:50.062Z,74.99
2019-02-24T05:35:50.048Z,75.52
2019-02-24T05:36:50.027Z,75.63
2019-02-24T05:37:50.030Z,75.84
2019-02-24T05:38:50.012Z,75.94
2019-02-24T05:39:50.004Z,75.91
2019-02-24T05:40:49.991Z,74.99
2019-02-24T05:41:49.973Z,74.75
2019-02-24T05:42:49.971Z,74.89
2019-02-24T05:43:49.965Z,74.47
2019-02-24T05:44:49.949Z,74.57
2019-02-24T05:45:49.986Z,74.68
2019-02-24T05:46:49.918Z,74.89
2019-02-24T05:47:49.909Z,75.63
2019-02-24T05:48:49.916Z,76.36
2019-02-24T05:49:49.894Z,75.98
2019-02-24T05:50:49.887Z,75.84
2019-02-24T05:51:49.875Z,75.45
2019-02-24T05:52:49.896Z,75.56
2019-02-24T05:53:50.092Z,76.29
2019-02-24T05:54:51.841Z,75.87
2019-02-24T05:55:49.826Z,75.84
2019-02-24T05:56:49.818Z,75.34
2019-02-24T05:57:49.810Z,75.66
2019-02-24T05:58:49.805Z,76.50
2019-02-24T05:59:55.333Z,76.08
2019-02-24T06:00:50.772Z,75.66
2019-02-24T06:01:49.770Z,76.05
2019-02-24T06:02:49.756Z,75.45
2019-02-24T06:03:49.743Z,74.82
2019-02-24T06:04:49.743Z,74.40
2019-02-24T06:05:49.719Z,74.40
2019-02-24T06:06:49.713Z,74.22
2019-02-24T06:07:49.696Z,74.82
2019-02-24T06:08:49.685Z,75.87
2019-02-24T06:09:49.692Z,76.54
2019-02-24T06:10:49.670Z,77.28
2019-02-24T06:11:49.653Z,76.75
2019-02-24T06:12:49.644Z,76.54
2019-02-24T06:13:49.640Z,76.12
2019-02-24T06:14:49.659Z,77.06
2019-02-24T06:15:49.618Z,76.40
2019-02-24T06:16:49.603Z,76.29
2019-02-24T06:17:49.590Z,76.08
2019-02-24T06:18:49.585Z,76.15
2019-02-24T06:19:49.581Z,75.94
2019-02-24T06:20:49.568Z,76.36
2019-02-24T06:21:49.573Z,76.78
2019-02-24T06:22:49.536Z,76.96
2019-02-24T06:23:49.526Z,76.54
2019-02-24T06:24:49.515Z,75.81
2019-02-24T06:25:49.514Z,75.59
2019-02-24T06:26:49.500Z,75.35
2019-02-24T06:27:49.483Z,74.75
2019-02-24T06:28:49.479Z,74.12
2019-02-24T06:29:49.464Z,74.51
2019-02-24T06:30:49.474Z,74.65
2019-02-24T06:31:49.455Z,74.65
2019-02-24T06:32:49.429Z,75.03
2019-02-24T06:33:49.418Z,75.27
2019-02-24T06:34:49.413Z,75.87
2019-02-24T06:35:49.398Z,76.65
2019-02-24T06:36:49.429Z,75.87
2019-02-24T06:37:49.381Z,75.56
2019-02-24T06:38:49.365Z,75.35
2019-02-24T06:39:49.360Z,75.24
2019-02-24T06:40:49.344Z,75.45
2019-02-24T06:41:49.339Z,75.67
2019-02-24T06:42:49.339Z,75.98
2019-02-24T06:43:49.318Z,76.09
2019-02-24T06:44:49.305Z,76.57
2019-02-24T06:45:49.294Z,75.52
2019-02-24T06:46:49.279Z,75.10
2019-02-24T06:47:49.302Z,74.37
2019-02-24T06:48:49.262Z,73.52
2019-02-24T06:49:49.254Z,72.86
2019-02-24T06:50:49.237Z,72.79
2019-02-24T06:51:49.229Z,72.65
2019-02-24T06:52:49.228Z,72.75
2019-02-24T06:53:49.210Z,72.44
2019-02-24T06:54:49.199Z,72.75
2019-02-24T06:55:49.187Z,72.41
2019-02-24T06:56:49.182Z,72.93
2019-02-24T06:57:49.177Z,72.93
2019-02-24T06:58:49.165Z,72.80
2019-02-24T06:59:49.156Z,72.09
2019-02-24T07:00:49.133Z,71.64
2019-02-24T07:01:49.120Z,71.64
2019-02-24T07:02:49.113Z,71.53
2019-02-24T07:03:49.108Z,71.19
2019-02-24T07:04:49.094Z,70.87
2019-02-24T07:05:49.086Z,71.40
2019-02-24T07:06:49.065Z,71.50
2019-02-24T07:07:49.062Z,70.87
2019-02-24T07:08:49.047Z,71.36
2019-02-24T07:09:49.049Z,71.15
2019-02-24T07:10:49.025Z,70.31
2019-02-24T07:11:49.024Z,69.68
2019-02-24T07:12:49.025Z,69.37
2019-02-24T07:13:48.997Z,68.43
2019-02-24T07:14:48.990Z,68.01
2019-02-24T07:15:48.970Z,68.43
2019-02-24T07:16:48.960Z,68.43
2019-02-24T07:17:48.954Z,68.43
2019-02-24T07:18:48.936Z,68.63
2019-02-24T07:19:48.937Z,68.21
2019-02-24T07:20:48.913Z,69.06
2019-02-24T07:21:48.924Z,69.68
2019-02-24T07:22:48.918Z,69.37
2019-02-24T07:23:48.890Z,69.37
2019-02-24T07:24:48.875Z,68.95
2019-02-24T07:25:48.879Z,68.85
2019-02-24T07:26:48.887Z,68.95
2019-02-24T07:27:48.837Z,69.02
2019-02-24T07:28:48.837Z,68.92
2019-02-24T07:29:48.820Z,69.58
2019-02-24T07:30:48.805Z,68.82
2019-02-24T07:31:48.793Z,68.40
2019-02-24T07:32:48.800Z,68.82
2019-02-24T07:33:48.780Z,68.29
2019-02-24T07:34:48.765Z,68.15
2019-02-24T07:35:48.776Z,68.08
2019-02-24T07:36:48.750Z,67.84
2019-02-24T07:37:48.730Z,67.84
2019-02-24T07:38:48.733Z,67.39
2019-02-24T07:39:48.711Z,66.86
2019-02-24T07:40:48.706Z,66.97
2019-02-24T07:41:48.700Z,67.81
2019-02-24T07:42:48.675Z,67.39
2019-02-24T07:43:48.669Z,67.49
2019-02-24T07:44:48.654Z,67.81
2019-02-24T07:45:48.652Z,67.60
2019-02-24T07:46:48.668Z,67.25
2019-02-24T07:47:48.635Z,66.63
2019-02-24T07:48:48.615Z,66.31
2019-02-24T07:49:48.606Z,66.10
2019-02-24T07:50:48.598Z,65.37
2019-02-24T07:51:48.584Z,65.79
2019-02-24T07:52:48.580Z,64.84
2019-02-24T07:53:48.561Z,64.95
2019-02-24T07:54:48.550Z,64.61
2019-02-24T07:55:48.536Z,65.05
2019-02-24T07:56:48.526Z,65.55
2019-02-24T07:57:48.536Z,66.07
2019-02-24T07:58:48.509Z,65.23
2019-02-24T07:59:48.496Z,65.20
2019-02-24T08:00:48.491Z,63.87
2019-02-24T08:01:48.481Z,62.62
2019-02-24T08:02:48.468Z,62.62
2019-02-24T08:03:48.463Z,62.62
2019-02-24T08:04:48.444Z,62.90
2019-02-24T08:05:48.460Z,62.59
2019-02-24T08:06:48.419Z,63.32
2019-02-24T08:07:48.410Z,62.90
2019-02-24T08:08:48.400Z,62.27
2019-02-24T08:09:48.384Z,62.35
2019-02-24T08:10:48.388Z,62.24
2019-02-24T08:11:48.382Z,62.87
2019-02-24T08:12:48.357Z,62.24
2019-02-24T08:13:48.343Z,62.77
2019-02-24T08:14:48.334Z,61.61
2019-02-24T08:15:48.331Z,62.04
2019-02-24T08:16:48.323Z,61.83
2019-02-24T08:17:48.308Z,62.53
2019-02-24T08:18:49.947Z,62.43
2019-02-24T08:19:48.281Z,62.74
2019-02-24T08:20:48.300Z,62.63
2019-02-24T08:21:48.302Z,62.50
2019-02-24T08:22:48.247Z,63.02
2019-02-24T08:23:48.242Z,62.79
2019-02-24T08:24:48.225Z,62.48
2019-02-24T08:25:48.237Z,61.46
2019-02-24T08:26:48.202Z,61.85
2019-02-24T08:27:48.207Z,61.95
2019-02-24T08:28:48.192Z,60.80
2019-02-24T08:29:48.173Z,60.70
2019-02-24T08:30:48.165Z,60.93
2019-02-24T08:31:48.154Z,61.04
2019-02-24T08:32:48.187Z,60.28
2019-02-24T08:33:48.128Z,60.38
2019-02-24T08:34:48.117Z,60.41
2019-02-24T08:35:48.117Z,59.89
2019-02-24T08:36:48.095Z,60.93
2019-02-24T08:37:48.093Z,60.62
2019-02-24T08:38:48.092Z,61.15
2019-02-24T08:39:48.061Z,61.15
2019-02-24T08:40:48.063Z,61.98
2019-02-24T08:41:48.048Z,62.19
2019-02-24T08:42:48.045Z,63.02
2019-02-24T08:43:48.024Z,62.50
2019-02-24T08:44:48.025Z,62.19
2019-02-24T08:45:48.002Z,62.40
2019-02-24T08:46:47.986Z,63.13
2019-02-24T08:47:47.974Z,62.71
2019-02-24T08:48:47.978Z,63.96
2019-02-24T08:49:47.973Z,64.49
2019-02-24T08:50:47.941Z,64.59
2019-02-24T08:51:47.931Z,64.59
2019-02-24T08:52:47.922Z,63.52
2019-02-24T08:53:47.910Z,64.14
2019-02-24T08:54:47.940Z,63.52
2019-02-24T08:55:47.887Z,63.98
2019-02-24T08:56:47.887Z,62.88
2019-02-24T08:57:47.876Z,61.73
2019-02-24T08:58:47.856Z,61.60
2019-02-24T08:59:47.848Z,60.74
2019-02-24T09:00:51.090Z,60.32
2019-02-24T09:01:47.822Z,59.80
2019-02-24T09:02:47.811Z,59.05
2019-02-24T09:03:47.806Z,57.15
2019-02-24T09:04:47.796Z,56.54
2019-02-24T09:05:47.792Z,56.41
2019-02-24T09:06:47.780Z,56.41
2019-02-24T09:07:47.763Z,55.69
2019-02-24T09:08:47.747Z,55.98
2019-02-24T09:09:47.742Z,55.32
2019-02-24T09:10:47.731Z,56.37
2019-02-24T09:11:47.720Z,56.52
2019-02-24T09:12:47.702Z,55.04
2019-02-24T09:13:47.700Z,54.91
2019-02-24T09:14:47.687Z,53.54
2019-02-24T09:15:47.669Z,53.64
2019-02-24T09:16:47.674Z,51.65
2019-02-24T09:17:47.660Z,51.03
2019-02-24T09:18:47.637Z,51.57
2019-02-24T09:19:47.627Z,51.65
2019-02-24T09:20:47.624Z,51.54
2019-02-24T09:21:47.637Z,51.44
2019-02-24T09:22:47.600Z,51.62
2019-02-24T09:23:47.585Z,51.52
2019-02-24T09:24:47.569Z,51.73
2019-02-24T09:25:47.559Z,50.69
2019-02-24T09:26:47.555Z,51.54
2019-02-24T09:27:47.556Z,51.42
2019-02-24T09:28:47.532Z,50.71
2019-02-24T09:29:47.516Z,51.13
2019-02-24T09:30:47.510Z,51.73
2019-02-24T09:31:47.494Z,51.18
2019-02-24T09:32:47.540Z,50.46
2019-02-24T09:33:47.492Z,51.60
2019-02-24T09:34:47.463Z,50.62
2019-02-24T09:35:47.454Z,48.05
2019-02-24T09:36:47.446Z,49.63
2019-02-24T09:37:47.429Z,49.63
2019-02-24T09:38:47.426Z,50.95
2019-02-24T09:39:47.411Z,49.40
2019-02-24T09:40:47.398Z,48.78
2019-02-24T09:41:47.388Z,48.90
2019-02-24T09:42:47.378Z,49.63
2019-02-24T09:43:47.389Z,49.81
2019-02-24T09:44:47.356Z,48.78
2019-02-24T09:45:47.352Z,48.78
2019-02-24T09:46:47.333Z,48.26
2019-02-24T09:47:47.342Z,49.01
2019-02-24T09:48:47.338Z,50.30
2019-02-24T09:49:47.294Z,49.55
2019-02-24T09:50:47.288Z,49.44
2019-02-24T09:51:47.277Z,48.69
2019-02-24T09:52:47.261Z,49.13
2019-02-24T09:53:47.256Z,49.26
2019-02-24T09:54:47.248Z,51.03
2019-02-24T09:55:47.271Z,50.48
2019-02-24T09:56:47.238Z,49.52
2019-02-24T09:57:47.211Z,48.68
2019-02-24T09:58:47.199Z,48.24
2019-02-24T09:59:47.187Z,47.28
2019-02-24T10:00:47.174Z,46.79
2019-02-24T10:01:47.175Z,46.89
2019-02-24T10:02:47.154Z,47.70
2019-02-24T10:03:47.142Z,45.44
2019-02-24T10:04:47.132Z,44.49
2019-02-24T10:05:47.124Z,45.63
2019-02-24T10:06:47.119Z,44.59
2019-02-24T10:07:47.102Z,44.70
2019-02-24T10:08:47.090Z,44.62
2019-02-24T10:09:47.078Z,45.81
2019-02-24T10:10:47.072Z,44.68
2019-02-24T10:11:47.055Z,43.93
2019-02-24T10:12:47.053Z,44.41
2019-02-24T10:13:47.037Z,42.44
2019-02-24T10:14:47.023Z,41.52
2019-02-24T10:15:47.011Z,42.34
2019-02-24T10:16:46.998Z,41.29
2019-02-24T10:17:46.997Z,41.19
2019-02-24T10:18:46.979Z,41.60
2019-02-24T10:19:46.975Z,41.27
2019-02-24T10:20:46.957Z,41.48
2019-02-24T10:21:46.991Z,41.36
2019-02-24T10:22:46.956Z,40.73
2019-02-24T10:23:46.924Z,39.79
2019-02-24T10:24:46.918Z,41.44
2019-02-24T10:25:46.906Z,40.19
2019-02-24T10:26:46.888Z,40.19
2019-02-24T10:27:46.887Z,39.77
2019-02-24T10:28:47.798Z,39.47
2019-02-24T10:29:46.858Z,39.87
2019-02-24T10:30:46.846Z,40.06
2019-02-24T10:31:46.830Z,38.40
2019-02-24T10:32:46.820Z,38.17
2019-02-24T10:33:46.807Z,37.74
2019-02-24T10:34:46.806Z,37.13
2019-02-24T10:35:46.792Z,37.02
2019-02-24T10:36:46.775Z,37.95
2019-02-24T10:37:46.767Z,36.49
2019-02-24T10:38:46.757Z,37.11
2019-02-24T10:39:46.753Z,37.73
2019-02-24T10:40:46.735Z,37.73
2019-02-24T10:41:46.727Z,37.74
2019-02-24T10:42:46.712Z,38.06
2019-02-24T10:43:46.703Z,37.74
2019-02-24T10:44:46.748Z,38.78
2019-02-24T10:45:46.675Z,37.52
2019-02-24T10:46:46.671Z,37.32
2019-02-24T10:47:46.663Z,37.43
2019-02-24T10:48:46.654Z,36.63
2019-02-24T10:49:46.632Z,37.45
2019-02-24T10:50:46.630Z,37.04
2019-02-24T10:51:46.617Z,37.95
2019-02-24T10:52:46.601Z,37.11
2019-02-24T10:53:46.593Z,36.37
2019-02-24T10:54:46.582Z,35.36
2019-02-24T10:55:46.622Z,35.28
2019-02-24T10:56:46.563Z,35.60
2019-02-24T10:57:46.547Z,35.69
2019-02-24T10:58:46.539Z,35.38
2019-02-24T10:59:46.529Z,34.99
2019-02-24T11:00:46.518Z,35.09
2019-02-24T11:01:46.516Z,37.15
2019-02-24T11:02:46.495Z,37.02
2019-02-24T11:03:46.485Z,35.36
2019-02-24T11:04:46.472Z,34.52
2019-02-24T11:05:46.463Z,33.92
2019-02-24T11:06:46.506Z,34.85
2019-02-24T11:07:46.455Z,34.52
2019-02-24T11:08:46.434Z,34.52
2019-02-24T11:09:46.419Z,34.73
2019-02-24T11:10:46.410Z,34.22
2019-02-24T11:11:46.433Z,33.60
2019-02-24T11:12:46.380Z,33.09
2019-02-24T11:13:46.369Z,34.64
2019-02-24T11:14:46.365Z,34.86
2019-02-24T11:15:46.355Z,34.57
2019-02-24T11:16:46.338Z,35.50
2019-02-24T11:17:46.358Z,34.33
2019-02-24T11:18:46.320Z,35.35
2019-02-24T11:19:46.310Z,34.08
2019-02-24T11:20:46.340Z,34.89
2019-02-24T11:21:46.325Z,34.89
2019-02-24T11:22:46.276Z,34.38
2019-02-24T11:23:46.270Z,34.08
2019-02-24T11:24:46.302Z,34.70
2019-02-24T11:25:46.253Z,34.77
2019-02-24T11:26:46.234Z,32.28
2019-02-24T11:27:46.227Z,32.98
2019-02-24T11:28:46.210Z,33.44
2019-02-24T11:29:46.196Z,30.36
2019-02-24T11:30:46.218Z,30.18
2019-02-24T11:31:46.200Z,31.65
2019-02-24T11:32:46.194Z,32.57
2019-02-24T11:33:46.157Z,31.84
2019-02-24T11:34:46.154Z,30.40
2019-02-24T11:35:46.140Z,30.83
2019-02-24T11:36:46.118Z,29.80
2019-02-24T11:37:46.111Z,30.32
2019-02-24T11:38:46.097Z,31.63
2019-02-24T11:39:46.084Z,30.29
2019-02-24T11:40:46.112Z,29.77
2019-02-24T11:41:46.065Z,30.10
2019-02-24T11:42:46.057Z,29.80
2019-02-24T11:43:46.040Z,30.91
2019-02-24T11:44:46.040Z,30.30
2019-02-24T11:45:46.023Z,32.01
2019-02-24T11:46:46.047Z,31.15
2019-02-24T11:47:45.996Z,29.90
2019-02-24T11:48:45.989Z,29.58
2019-02-24T11:49:45.985Z,31.81
2019-02-24T11:50:45.971Z,29.96
2019-02-24T11:51:45.957Z,28.54
2019-02-24T11:52:45.980Z,28.64
2019-02-24T11:53:45.932Z,28.22
2019-02-24T11:54:45.926Z,26.48
2019-02-24T11:55:45.914Z,25.87
2019-02-24T11:56:45.898Z,28.83
2019-02-24T11:57:45.886Z,28.72
2019-02-24T11:58:45.888Z,27.79
2019-02-24T11:59:45.865Z,27.88
2019-02-24T12:00:45.859Z,26.37
2019-02-24T12:01:47.752Z,24.55
2019-02-24T12:02:45.836Z,25.11
2019-02-24T12:03:45.837Z,26.06
2019-02-24T12:04:45.816Z,27.11
2019-02-24T12:05:45.799Z,27.10
2019-02-24T12:06:45.791Z,29.12
2019-02-24T12:07:45.799Z,27.95
2019-02-24T12:08:45.771Z,28.03
2019-02-24T12:09:45.761Z,25.76
2019-02-24T12:10:45.742Z,24.52
2019-02-24T12:11:45.731Z,24.51
2019-02-24T12:12:45.736Z,24.04
2019-02-24T12:13:45.713Z,23.35
2019-02-24T12:14:45.703Z,24.18
2019-02-24T12:15:45.692Z,24.38
2019-02-24T12:16:45.683Z,25.00
2019-02-24T12:17:45.664Z,25.71
2019-02-24T12:18:45.658Z,26.75
2019-02-24T12:19:45.651Z,25.31
2019-02-24T12:20:45.657Z,26.42
2019-02-24T12:21:45.620Z,25.29
2019-02-24T12:22:45.615Z,25.00
2019-02-24T12:23:45.605Z,24.91
2019-02-24T12:24:45.627Z,25.02
2019-02-24T12:25:45.577Z,26.76
2019-02-24T12:26:45.573Z,25.44
2019-02-24T12:27:45.556Z,25.85
2019-02-24T12:28:45.549Z,26.07
2019-02-24T12:29:45.537Z,25.67
2019-02-24T12:30:45.541Z,25.95
2019-02-24T12:31:45.555Z,26.35
2019-02-24T12:32:45.505Z,25.40
2019-02-24T12:33:45.495Z,25.28
2019-02-24T12:34:45.479Z,25.46
2019-02-24T12:35:45.482Z,24.54
2019-02-24T12:36:45.462Z,24.82
2019-02-24T12:37:45.460Z,25.12
2019-02-24T12:38:45.439Z,24.40
2019-02-24T12:39:45.429Z,25.02
2019-02-24T12:40:45.417Z,24.10
2019-02-24T12:41:45.415Z,24.73
2019-02-24T12:42:45.399Z,24.34
2019-02-24T12:43:45.392Z,25.26
2019-02-24T12:44:45.371Z,25.56
2019-02-24T12:45:45.363Z,25.75
2019-02-24T12:46:45.347Z,24.53
2019-02-24T12:47:45.383Z,24.11
2019-02-24T12:48:45.334Z,23.60
2019-02-24T12:49:45.320Z,24.45
2019-02-24T12:50:45.309Z,24.57
2019-02-24T12:51:45.295Z,25.16
2019-02-24T12:52:45.296Z,24.54